EDFM/MHG METAR and TAF weather

Enter ICAO airport designator
Station Type Date Time Source
EDFM METAR 2019/02/23 18:50 UTC NOAA

EDFM 231850Z 02004KT CAVOK 06/M05 Q1038


Station Type Date Time Source
EDFM Decoded METAR 2019/02/23 18:50 UTC NOAA

Baden Wurttemberg, Neuostheim, Germany (EDFM) 49-28-21N 008-30-56E
Feb 23, 2019 - 01:50 PM EST / 2019.02.23 1850 UTC
Wind: from the NNE (020 degrees) at 5 MPH (4 KT):0
Visibility: greater than 7 mile(s):0
Temperature: 42 F (6 C)
Dew Point: 23 F (-5 C)
Relative Humidity: 45%
Pressure (altimeter): 30.65 in. Hg (1038 hPa)
ob: EDFM 231850Z 02004KT CAVOK 06/M05 Q1038
cycle: 19

Station Type Date Time Source
EDFM TAF 2012/03/06 06:30 UTC NOAA

TAF EDFM 060519Z 0606/0621 15004KT 9999 FEW040


Example: see airport list